Time;durP1;ratioP1;P1;durP2;ratioP2;P2;SDS_P1;SDS_P2;PMS_P1;PMS_P2;Temp;Humidity;BMP_temperature;BMP_pressure;BME280_temperature;BME280_humidity;BME280_pressure;Samples;Min_cycle;Max_cycle;Signal;HPM_P1;HPM_P2
2023/01/24 00:00:33;;;;;;;16.83;11.90;;;0.80;99.90;;;;;;7391552;19;20308;-83
2023/01/24 00:02:59;;;;;;;17.73;11.93;;;0.80;99.90;;;;;;7393413;19;20422;-78
2023/01/24 00:05:25;;;;;;;19.73;14.20;;;0.80;99.90;;;;;;7392870;19;20388;-77
2023/01/24 00:07:50;;;;;;;24.00;15.13;;;0.70;99.90;;;;;;7393086;19;20312;-78
2023/01/24 00:10:16;;;;;;;20.80;14.15;;;0.80;99.90;;;;;;7391469;19;20308;-81
2023/01/24 00:12:41;;;;;;;21.20;14.33;;;0.80;99.90;;;;;;7391376;19;20301;-77
2023/01/24 00:15:07;;;;;;;18.77;11.90;;;0.80;99.90;;;;;;7391440;19;20309;-76
2023/01/24 00:17:33;;;;;;;23.00;14.32;;;0.80;99.90;;;;;;7391843;19;20293;-76
2023/01/24 00:19:58;;;;;;;21.87;14.17;;;0.70;99.90;;;;;;7389847;19;20577;-78
2023/01/24 00:22:24;;;;;;;21.35;15.25;;;0.80;99.90;;;;;;7392091;19;21248;-81
2023/01/24 00:24:50;;;;;;;21.83;13.40;;;0.70;99.90;;;;;;7392158;19;20312;-83
2023/01/24 00:27:16;;;;;;;18.63;12.43;;;0.70;99.90;;;;;;7392761;19;20317;-78
2023/01/24 00:29:42;;;;;;;25.73;15.30;;;0.70;99.90;;;;;;7391135;19;20316;-78
2023/01/24 00:32:08;;;;;;;26.05;16.17;;;0.70;99.90;;;;;;7391369;19;20364;-80
2023/01/24 00:34:34;;;;;;;21.02;14.50;;;0.70;99.90;;;;;;7390790;19;20301;-83
2023/01/24 00:36:59;;;;;;;23.80;14.97;;;0.70;99.90;;;;;;7391457;19;21087;-79
2023/01/24 00:39:25;;;;;;;18.00;12.85;;;0.80;99.90;;;;;;7390002;19;20301;-80
2023/01/24 00:41:52;;;;;;;20.35;12.38;;;0.80;99.90;;;;;;7391825;19;20980;-82
2023/01/24 00:44:18;;;;;;;22.23;14.80;;;0.80;99.90;;;;;;7387940;19;20324;-78
2023/01/24 00:46:44;;;;;;;21.92;14.63;;;0.80;99.90;;;;;;7391877;19;20336;-79
2023/01/24 00:49:12;;;;;;;21.20;14.68;;;0.70;99.90;;;;;;7391614;19;20312;-80
2023/01/24 00:51:38;;;;;;;20.25;12.48;;;0.70;99.90;;;;;;7391796;19;20360;-78
2023/01/24 00:54:04;;;;;;;21.73;14.65;;;0.80;99.90;;;;;;7391318;19;20323;-77
2023/01/24 00:56:29;;;;;;;21.83;14.73;;;0.70;99.90;;;;;;7394056;19;20349;-84
2023/01/24 00:58:55;;;;;;;23.55;15.40;;;0.70;99.90;;;;;;7393268;19;20324;-81
2023/01/24 01:01:20;;;;;;;23.13;13.77;;;0.80;99.90;;;;;;7390627;19;20321;-81
2023/01/24 01:03:47;;;;;;;18.88;12.48;;;0.70;99.90;;;;;;7391242;19;20814;-76
2023/01/24 01:06:14;;;;;;;20.07;13.67;;;0.80;99.90;;;;;;7390453;19;20304;-78
2023/01/24 01:08:39;;;;;;;21.63;14.82;;;0.70;99.90;;;;;;7390287;19;20859;-81
2023/01/24 01:11:05;;;;;;;21.90;13.80;;;0.70;99.90;;;;;;7390803;19;20316;-81
2023/01/24 01:13:31;;;;;;;17.90;12.33;;;0.70;99.90;;;;;;7392719;19;20313;-78
2023/01/24 01:16:04;;;;;;;25.05;15.55;;;0.70;99.90;;;;;;7393220;19;20364;-79
2023/01/24 01:18:30;;;;;;;23.13;14.45;;;0.70;99.90;;;;;;7391036;19;20659;-80
2023/01/24 01:20:55;;;;;;;22.73;14.30;;;0.70;99.90;;;;;;7392864;19;20328;-78
2023/01/24 01:23:21;;;;;;;22.50;13.30;;;0.70;99.90;;;;;;7397226;19;20313;-78
2023/01/24 01:25:46;;;;;;;21.47;14.20;;;0.70;99.90;;;;;;7398667;19;20323;-83
2023/01/24 01:28:12;;;;;;;19.95;13.75;;;0.70;99.90;;;;;;7399388;19;20327;-80
2023/01/24 01:30:38;;;;;;;26.40;15.20;;;0.70;99.90;;;;;;7397109;19;20316;-78
2023/01/24 01:33:03;;;;;;;19.17;12.95;;;0.70;99.90;;;;;;7399009;19;20317;-80
2023/01/24 01:35:29;;;;;;;25.03;14.37;;;0.70;99.90;;;;;;7399156;19;20984;-79
2023/01/24 01:37:54;;;;;;;24.23;16.33;;;0.70;99.90;;;;;;7397337;19;20710;-79
2023/01/24 01:40:20;;;;;;;18.90;13.30;;;0.70;99.90;;;;;;7398018;19;20344;-81
2023/01/24 01:42:50;;;;;;;21.08;12.35;;;0.70;99.90;;;;;;7396940;19;20325;-80
2023/01/24 01:45:42;;;;;;;22.25;14.95;;;0.70;99.90;;;;;;7396424;19;20342;-81
2023/01/24 01:48:18;;;;;;;22.35;15.02;;;0.70;99.90;;;;;;7296167;19;2004569;-80
2023/01/24 01:50:47;;;;;;;24.67;15.82;;;0.70;99.90;;;;;;7400358;19;20312;-77
2023/01/24 01:53:12;;;;;;;22.83;14.00;;;0.70;99.90;;;;;;7399622;19;20351;-78
2023/01/24 01:55:39;;;;;;;23.37;14.37;;;0.70;99.90;;;;;;7398085;19;21170;-79
2023/01/24 01:58:04;;;;;;;28.47;16.27;;;0.70;99.90;;;;;;7398244;19;20361;-79
2023/01/24 02:00:30;;;;;;;26.67;15.97;;;0.70;99.90;;;;;;7398664;19;20320;-79
2023/01/24 02:05:48;;;;;;;23.77;13.20;;;0.70;99.90;;;;;;7294210;19;2005038;-77
2023/01/24 02:08:17;;;;;;;26.85;17.10;;;0.60;99.90;;;;;;7397247;19;20893;-79
2023/01/24 02:13:27;;;;;;;26.53;15.07;;;0.70;99.90;;;;;;7397428;19;20296;-82
2023/01/24 02:16:02;;;;;;;25.63;15.13;;;0.70;99.90;;;;;;7397731;19;20682;-81
2023/01/24 02:18:28;;;;;;;29.08;17.90;;;0.70;99.90;;;;;;7398316;19;20321;-80
2023/01/24 02:20:54;;;;;;;25.60;17.27;;;0.70;99.90;;;;;;7398262;19;20363;-81
2023/01/24 02:23:39;;;;;;;25.55;14.95;;;0.70;99.90;;;;;;7396809;19;20308;-85
2023/01/24 02:26:09;;;;;;;27.60;17.05;;;0.70;99.90;;;;;;7294661;19;2004343;-82
2023/01/24 02:28:35;;;;;;;29.75;18.48;;;0.70;99.90;;;;;;7397332;19;20404;-79
2023/01/24 02:31:01;;;;;;;26.70;17.02;;;0.70;99.90;;;;;;7397466;19;20321;-84
2023/01/24 02:33:27;;;;;;;28.35;14.93;;;0.70;99.90;;;;;;7397152;19;20869;-80
2023/01/24 02:36:11;;;;;;;26.75;15.95;;;0.70;99.90;;;;;;7394618;19;20317;-78
2023/01/24 02:38:37;;;;;;;25.90;17.20;;;0.70;99.90;;;;;;7294123;19;2004708;-82
2023/01/24 02:41:06;;;;;;;30.55;17.95;;;0.70;99.90;;;;;;7397021;19;20379;-83
2023/01/24 02:43:34;;;;;;;28.83;15.37;;;0.70;99.90;;;;;;7396349;19;20312;-81
2023/01/24 02:46:00;;;;;;;24.73;15.52;;;0.70;99.90;;;;;;7396471;19;20366;-82
2023/01/24 02:48:26;;;;;;;28.30;17.90;;;0.70;99.90;;;;;;7396014;19;20304;-83
2023/01/24 02:53:36;;;;;;;28.93;15.83;;;0.60;99.90;;;;;;7292818;19;2004749;-76
2023/01/24 02:58:50;;;;;;;31.80;18.63;;;0.60;99.90;;;;;;7293754;19;2004420;-80
2023/01/24 03:01:16;;;;;;;28.70;18.42;;;0.60;99.90;;;;;;7396018;19;20305;-82
2023/01/24 03:03:45;;;;;;;25.33;15.68;;;0.60;99.90;;;;;;7394766;19;20866;-78
2023/01/24 03:06:12;;;;;;;25.50;15.82;;;0.60;99.90;;;;;;7396561;19;20405;-79
2023/01/24 03:08:37;;;;;;;31.48;17.67;;;0.60;99.90;;;;;;7396296;19;20328;-79
2023/01/24 03:11:11;;;;;;;27.15;17.55;;;0.60;99.90;;;;;;7397506;19;20312;-82
2023/01/24 03:35:36;;;;;;;26.77;15.18;;;0.70;99.90;;;;;;7291347;19;2004234;-79
2023/01/24 03:40:50;;;;;;;32.38;17.88;;;0.70;99.90;;;;;;7291056;19;2004258;-76
2023/01/24 03:43:16;;;;;;;25.20;17.30;;;0.60;99.90;;;;;;7393255;19;20309;-78
2023/01/24 03:45:42;;;;;;;23.20;14.43;;;0.60;99.90;;;;;;7394736;19;20328;-79
2023/01/24 03:48:25;;;;;;;24.17;14.23;;;0.60;99.90;;;;;;7394129;19;20338;-78
2023/01/24 03:53:42;;;;;;;29.55;18.10;;;0.60;99.90;;;;;;7290895;19;2006093;-79
2023/01/24 03:56:08;;;;;;;27.17;14.00;;;0.70;99.90;;;;;;7392802;19;20376;-80
2023/01/24 03:58:41;;;;;;;25.90;15.10;;;0.70;99.90;;;;;;7391356;19;20313;-78
2023/01/24 04:01:09;;;;;;;31.63;17.83;;;0.70;99.90;;;;;;7391129;19;20332;-78
2023/01/24 04:03:55;;;;;;;28.85;17.58;;;0.70;99.90;;;;;;7392145;19;20309;-81
2023/01/24 04:06:21;;;;;;;28.60;17.17;;;0.60;99.90;;;;;;7391952;19;20316;-78
2023/01/24 04:08:47;;;;;;;30.47;17.67;;;0.60;99.90;;;;;;7391296;19;20324;-81
2023/01/24 04:11:13;;;;;;;29.77;16.98;;;0.60;99.90;;;;;;7391102;19;20407;-87
2023/01/24 04:13:39;;;;;;;29.60;18.43;;;0.60;99.90;;;;;;7391675;19;20309;-78
2023/01/24 04:16:06;;;;;;;24.80;14.05;;;0.60;99.90;;;;;;7391108;19;20305;-76
2023/01/24 04:18:47;;;;;;;22.77;13.77;;;0.60;99.90;;;;;;7392708;19;20345;-82
2023/01/24 04:21:13;;;;;;;25.73;16.13;;;0.60;99.90;;;;;;7392164;19;20861;-79
2023/01/24 04:23:38;;;;;;;29.13;17.02;;;0.60;99.90;;;;;;7393016;19;20881;-80
2023/01/24 04:26:04;;;;;;;28.33;17.47;;;0.70;99.90;;;;;;7392607;19;20342;-86
2023/01/24 04:28:31;;;;;;;27.77;17.13;;;0.70;99.90;;;;;;7392651;19;20313;-86
2023/01/24 04:31:00;;;;;;;27.88;17.95;;;0.70;99.90;;;;;;7390875;19;20431;-77
2023/01/24 04:33:45;;;;;;;28.90;17.93;;;0.70;99.90;;;;;;7288030;19;2004236;-82
2023/01/24 04:36:12;;;;;;;29.08;17.55;;;0.70;99.90;;;;;;7392947;19;20347;-77
2023/01/24 04:38:38;;;;;;;30.80;18.08;;;0.60;99.90;;;;;;7392525;19;20308;-82
2023/01/24 04:41:17;;;;;;;26.80;17.02;;;0.70;99.90;;;;;;7391851;19;20373;-84
2023/01/24 04:43:45;;;;;;;29.00;17.60;;;0.70;99.90;;;;;;7392566;19;20330;-83
2023/01/24 04:46:12;;;;;;;28.33;17.17;;;0.60;99.90;;;;;;7390576;19;20308;-81
2023/01/24 04:48:57;;;;;;;29.30;17.47;;;0.70;99.90;;;;;;7389069;19;20818;-84
2023/01/24 04:51:35;;;;;;;28.35;17.65;;;0.70;99.90;;;;;;7389969;19;20416;-87
2023/01/24 04:54:05;;;;;;;26.63;17.02;;;0.70;99.90;;;;;;7389366;19;20384;-77
2023/01/24 04:56:32;;;;;;;28.45;17.38;;;0.70;99.90;;;;;;7391099;19;20305;-79
2023/01/24 04:58:59;;;;;;;26.55;17.42;;;0.70;99.90;;;;;;7396395;19;20331;-80
2023/01/24 05:01:24;;;;;;;28.73;17.80;;;0.60;99.90;;;;;;7395879;19;20340;-76
2023/01/24 05:04:00;;;;;;;27.42;15.05;;;0.60;99.90;;;;;;7396156;19;20304;-80
2023/01/24 05:06:30;;;;;;;28.25;15.23;;;0.60;99.90;;;;;;7397673;19;20441;-88
2023/01/24 05:08:57;;;;;;;28.38;18.23;;;0.60;99.90;;;;;;7400761;19;20300;-78
2023/01/24 05:11:28;;;;;;;31.02;18.45;;;0.60;99.90;;;;;;7398886;19;20337;-80
2023/01/24 05:13:58;;;;;;;28.52;17.58;;;0.60;99.90;;;;;;7399086;19;20320;-82
2023/01/24 05:16:30;;;;;;;26.63;17.05;;;0.60;99.90;;;;;;7398811;19;20344;-87
2023/01/24 05:18:58;;;;;;;30.40;17.88;;;0.60;99.90;;;;;;7398958;19;20334;-82
2023/01/24 05:21:26;;;;;;;28.08;16.75;;;0.60;99.90;;;;;;7394925;19;20787;-89
2023/01/24 05:24:00;;;;;;;26.50;17.07;;;0.60;99.90;;;;;;7398403;19;20334;-81
2023/01/24 05:26:26;;;;;;;28.88;18.15;;;0.70;99.90;;;;;;7398108;19;20311;-86
2023/01/24 05:28:52;;;;;;;27.50;16.77;;;0.60;99.90;;;;;;7398899;19;20309;-83
2023/01/24 05:31:17;;;;;;;27.15;17.38;;;0.60;99.90;;;;;;7398583;19;20333;-85
2023/01/24 05:33:43;;;;;;;29.70;18.37;;;0.60;99.90;;;;;;7396135;19;20316;-88
2023/01/24 05:36:11;;;;;;;30.17;17.45;;;0.60;99.90;;;;;;7396219;19;20345;-80
2023/01/24 05:38:38;;;;;;;34.40;18.65;;;0.60;99.90;;;;;;7396297;19;20328;-82
2023/01/24 05:41:06;;;;;;;29.98;17.77;;;0.60;99.90;;;;;;7397202;19;20317;-82
2023/01/24 05:43:32;;;;;;;26.40;16.70;;;0.60;99.90;;;;;;7399106;19;20806;-79
2023/01/24 05:46:06;;;;;;;26.97;18.07;;;0.60;99.90;;;;;;7395298;19;20315;-83
2023/01/24 05:48:38;;;;;;;30.83;18.75;;;0.60;99.90;;;;;;7293284;19;2004823;-85
2023/01/24 05:51:05;;;;;;;31.50;19.00;;;0.60;99.90;;;;;;7396843;19;20300;-84
2023/01/24 05:53:32;;;;;;;27.95;18.10;;;0.60;99.90;;;;;;7395377;19;20337;-80
2023/01/24 05:55:59;;;;;;;33.05;18.05;;;0.60;99.90;;;;;;7397336;19;20315;-78
2023/01/24 05:58:25;;;;;;;28.83;18.27;;;0.60;99.90;;;;;;7393281;19;20321;-83
2023/01/24 06:01:16;;;;;;;30.37;18.30;;;0.60;99.90;;;;;;7283389;19;2004501;-79
2023/01/24 06:03:44;;;;;;;30.15;17.38;;;0.60;99.90;;;;;;7387601;19;20340;-85
2023/01/24 06:06:11;;;;;;;26.90;16.65;;;0.60;99.90;;;;;;7391837;19;20324;-77
2023/01/24 06:08:37;;;;;;;26.13;17.17;;;0.70;99.90;;;;;;7387847;19;20438;-80
2023/01/24 06:11:07;;;;;;;29.02;18.35;;;0.60;99.90;;;;;;7380383;19;20358;-79
2023/01/24 06:13:33;;;;;;;31.10;18.60;;;0.60;99.90;;;;;;7390381;19;20337;-77
2023/01/24 06:16:25;;;;;;;30.07;18.57;;;0.60;99.90;;;;;;7387349;19;20308;-81
2023/01/24 06:18:52;;;;;;;25.65;16.27;;;0.60;99.90;;;;;;7284186;19;2004799;-78
2023/01/24 06:21:43;;;;;;;31.75;18.27;;;0.70;99.90;;;;;;7389489;19;20929;-79
2023/01/24 06:24:18;;;;;;;25.00;16.15;;;0.70;99.90;;;;;;7285550;19;2004282;-79
2023/01/24 06:26:53;;;;;;;28.13;16.65;;;0.70;99.90;;;;;;7385950;19;20356;-78
2023/01/24 06:29:20;;;;;;;28.58;17.30;;;0.70;99.90;;;;;;7384113;19;20503;-77
2023/01/24 06:32:25;;;;;;;24.63;15.02;;;0.80;99.90;;;;;;7380536;19;20309;-78
2023/01/24 06:35:07;;;;;;;24.70;16.02;;;0.80;99.90;;;;;;7283378;19;2004563;-77
2023/01/24 06:37:42;;;;;;;29.65;18.23;;;0.80;99.90;;;;;;7387371;19;20349;-85
2023/01/24 06:40:09;;;;;;;28.48;18.50;;;0.80;99.90;;;;;;7288001;19;2004520;-75
2023/01/24 06:42:35;;;;;;;27.88;17.58;;;0.80;99.90;;;;;;7388336;19;20320;-81
2023/01/24 06:45:00;;;;;;;30.83;17.75;;;0.80;99.90;;;;;;7387990;19;20637;-78
2023/01/24 06:47:27;;;;;;;23.27;15.43;;;0.80;99.90;;;;;;7386231;19;20322;-79
2023/01/24 06:49:53;;;;;;;29.97;17.33;;;0.80;99.90;;;;;;7386004;19;20348;-78
2023/01/24 06:52:19;;;;;;;29.27;17.30;;;0.80;99.90;;;;;;7387067;19;20312;-79
2023/01/24 06:54:45;;;;;;;32.28;18.58;;;0.80;99.90;;;;;;7387982;19;20334;-76
2023/01/24 06:57:10;;;;;;;34.00;18.23;;;0.80;99.90;;;;;;7387172;19;20853;-77
2023/01/24 06:59:36;;;;;;;29.98;18.23;;;0.70;99.90;;;;;;7389046;19;20652;-81
2023/01/24 07:02:01;;;;;;;28.53;16.97;;;0.70;99.90;;;;;;7387631;19;20402;-77
2023/01/24 07:04:27;;;;;;;28.70;16.88;;;0.70;99.90;;;;;;7389143;19;20331;-77
2023/01/24 07:06:52;;;;;;;26.23;15.97;;;0.80;99.90;;;;;;7387045;19;20437;-81
2023/01/24 07:09:20;;;;;;;28.92;17.35;;;0.80;99.90;;;;;;7385769;19;20327;-80
2023/01/24 07:11:49;;;;;;;28.38;17.05;;;0.80;99.90;;;;;;7386002;19;20764;-80
2023/01/24 07:14:15;;;;;;;23.48;14.75;;;0.80;99.90;;;;;;7385773;19;20738;-81
2023/01/24 07:16:40;;;;;;;28.65;17.50;;;0.80;99.90;;;;;;7386099;19;20316;-79
2023/01/24 07:19:08;;;;;;;28.73;18.73;;;0.80;99.90;;;;;;7388640;19;20361;-83
2023/01/24 07:21:39;;;;;;;28.73;18.13;;;0.70;99.90;;;;;;7387390;19;20323;-80
2023/01/24 07:24:07;;;;;;;28.10;17.35;;;0.80;99.90;;;;;;7387299;19;20381;-79
2023/01/24 07:26:33;;;;;;;28.40;18.17;;;0.80;99.90;;;;;;7386762;19;20944;-77
2023/01/24 07:28:58;;;;;;;28.65;16.73;;;0.80;99.90;;;;;;7387775;19;20332;-77
2023/01/24 07:31:24;;;;;;;28.27;17.97;;;0.80;99.90;;;;;;7385050;19;20324;-82
2023/01/24 07:33:50;;;;;;;27.98;18.10;;;0.80;99.90;;;;;;7387213;19;20406;-83
2023/01/24 07:36:15;;;;;;;31.17;17.63;;;0.80;99.90;;;;;;7386036;19;20966;-80
2023/01/24 07:38:41;;;;;;;29.97;18.20;;;0.80;99.90;;;;;;7387009;19;20334;-76
2023/01/24 07:41:08;;;;;;;32.10;18.33;;;0.80;99.90;;;;;;7385456;19;20308;-79
2023/01/24 07:43:33;;;;;;;30.97;18.50;;;0.80;99.90;;;;;;7387668;19;20300;-78
2023/01/24 07:45:59;;;;;;;30.40;18.67;;;0.80;99.90;;;;;;7387814;19;20369;-84
2023/01/24 07:48:24;;;;;;;32.07;18.57;;;0.80;99.90;;;;;;7386055;19;20695;-81
2023/01/24 07:50:50;;;;;;;27.08;17.75;;;0.80;99.90;;;;;;7387323;19;20332;-85
2023/01/24 07:53:15;;;;;;;32.57;19.07;;;0.80;99.90;;;;;;7388271;19;20413;-78
2023/01/24 07:55:41;;;;;;;30.17;18.63;;;0.70;99.90;;;;;;7389034;19;20667;-81
2023/01/24 07:58:06;;;;;;;29.87;17.70;;;0.70;99.90;;;;;;7387634;19;20308;-76
2023/01/24 08:00:32;;;;;;;32.03;18.65;;;0.70;99.90;;;;;;7384764;19;20333;-81
2023/01/24 08:02:58;;;;;;;32.10;18.73;;;0.80;99.90;;;;;;7387394;19;20347;-80
2023/01/24 08:05:23;;;;;;;31.58;18.75;;;0.80;99.90;;;;;;7387241;19;20334;-79
2023/01/24 08:07:49;;;;;;;27.00;15.87;;;0.70;99.90;;;;;;7387076;19;20317;-80
2023/01/24 08:10:15;;;;;;;25.75;15.30;;;0.70;99.90;;;;;;7385189;19;20312;-81
2023/01/24 08:12:40;;;;;;;27.97;17.30;;;0.70;99.90;;;;;;7386798;19;20830;-77
2023/01/24 08:15:06;;;;;;;28.45;17.63;;;0.70;99.90;;;;;;7385867;19;20304;-78
2023/01/24 08:17:32;;;;;;;29.05;18.88;;;0.80;99.90;;;;;;7388481;19;20328;-78
2023/01/24 08:19:57;;;;;;;30.73;18.83;;;0.80;99.90;;;;;;7385047;19;20296;-76
2023/01/24 08:22:24;;;;;;;26.38;15.25;;;0.80;99.90;;;;;;7384079;19;21000;-83
2023/01/24 08:24:50;;;;;;;31.27;17.17;;;0.80;99.90;;;;;;7389012;19;20417;-78
2023/01/24 08:27:15;;;;;;;28.20;17.17;;;0.80;99.90;;;;;;7385943;19;20901;-84
2023/01/24 08:29:41;;;;;;;29.47;17.60;;;0.90;99.90;;;;;;7383293;19;20321;-76
2023/01/24 08:32:06;;;;;;;25.73;15.07;;;0.90;99.90;;;;;;7382540;19;20321;-76
2023/01/24 08:34:32;;;;;;;30.07;17.37;;;1.00;99.90;;;;;;7387898;19;20864;-78
2023/01/24 08:36:57;;;;;;;19.75;13.63;;;1.00;99.90;;;;;;7386469;19;20372;-80
2023/01/24 08:39:23;;;;;;;26.50;17.23;;;1.00;99.90;;;;;;7387692;19;20340;-76
2023/01/24 08:41:49;;;;;;;19.27;13.02;;;1.10;99.90;;;;;;7389843;19;20688;-78
2023/01/24 08:44:15;;;;;;;22.03;14.83;;;1.20;99.90;;;;;;7392098;19;20324;-78
2023/01/24 08:46:41;;;;;;;23.33;14.88;;;1.20;99.90;;;;;;7389971;19;20325;-82
2023/01/24 08:49:06;;;;;;;22.13;14.57;;;1.30;99.90;;;;;;7393855;19;20324;-80
2023/01/24 08:51:32;;;;;;;29.23;18.17;;;1.20;99.90;;;;;;7391936;19;20316;-84
2023/01/24 08:53:58;;;;;;;26.17;16.43;;;1.20;99.90;;;;;;7393274;19;20313;-78
2023/01/24 08:56:23;;;;;;;23.63;15.48;;;1.20;99.90;;;;;;7395170;19;20335;-84
2023/01/24 08:58:49;;;;;;;21.20;14.03;;;1.20;99.90;;;;;;7392911;19;20320;-81
2023/01/24 09:01:14;;;;;;;24.75;15.80;;;1.30;99.90;;;;;;7391075;19;20431;-78
2023/01/24 09:03:40;;;;;;;22.33;13.77;;;1.30;99.90;;;;;;7393312;19;20320;-85
2023/01/24 09:06:06;;;;;;;22.42;14.30;;;1.40;99.90;;;;;;7391164;19;20321;-77
2023/01/24 09:08:31;;;;;;;21.77;14.07;;;1.40;99.90;;;;;;7390347;19;20328;-78
2023/01/24 09:10:58;;;;;;;23.33;14.55;;;1.40;99.90;;;;;;7391940;19;20901;-80
2023/01/24 09:13:24;;;;;;;28.13;16.88;;;1.40;99.90;;;;;;7391285;19;20713;-78
2023/01/24 09:15:49;;;;;;;26.00;16.43;;;1.40;99.90;;;;;;7390627;19;20339;-79
2023/01/24 09:18:16;;;;;;;26.25;16.77;;;1.40;99.90;;;;;;7390085;19;20313;-83
2023/01/24 09:20:42;;;;;;;26.50;16.77;;;1.30;99.90;;;;;;7389560;19;20656;-81
2023/01/24 09:23:11;;;;;;;27.77;15.20;;;1.30;99.90;;;;;;7387239;19;20329;-82
2023/01/24 09:25:37;;;;;;;25.10;15.85;;;1.30;99.90;;;;;;7385085;19;21019;-77
2023/01/24 09:28:03;;;;;;;24.03;15.13;;;1.30;99.90;;;;;;7385676;19;20312;-78
2023/01/24 09:30:37;;;;;;;20.75;13.13;;;1.40;99.90;;;;;;7383857;19;20672;-76
2023/01/24 09:33:04;;;;;;;26.98;16.77;;;1.40;99.90;;;;;;7388433;19;20312;-81
2023/01/24 09:35:29;;;;;;;22.90;14.15;;;1.40;99.90;;;;;;7389148;19;20944;-78
2023/01/24 09:37:55;;;;;;;20.33;13.27;;;1.40;99.90;;;;;;7388561;19;20346;-76
2023/01/24 09:40:26;;;;;;;30.30;16.70;;;1.50;99.90;;;;;;7389530;19;20357;-79
2023/01/24 09:43:08;;;;;;;22.80;15.68;;;1.50;99.90;;;;;;7387408;19;20332;-79
2023/01/24 09:45:36;;;;;;;23.38;14.18;;;1.50;99.90;;;;;;7393178;19;20297;-76
2023/01/24 09:48:15;;;;;;;26.92;18.08;;;1.50;99.90;;;;;;7395029;19;20311;-76
2023/01/24 09:50:49;;;;;;;24.23;15.80;;;1.50;99.90;;;;;;7292176;19;2004571;-79
2023/01/24 09:53:21;;;;;;;26.80;16.83;;;1.40;99.90;;;;;;7396027;19;20312;-79
2023/01/24 09:55:47;;;;;;;25.13;16.75;;;1.40;99.90;;;;;;7394398;19;20333;-80
2023/01/24 09:58:18;;;;;;;23.53;16.17;;;1.40;99.90;;;;;;7394567;19;20703;-78
2023/01/24 10:00:44;;;;;;;24.92;16.13;;;1.40;99.90;;;;;;7396187;19;20318;-81
2023/01/24 10:03:17;;;;;;;25.50;16.17;;;1.40;99.90;;;;;;7395343;19;20320;-76
2023/01/24 10:05:51;;;;;;;26.98;17.05;;;1.50;99.90;;;;;;7394450;19;20328;-81
2023/01/24 10:09:14;;;;;;;26.40;17.27;;;1.40;99.90;;;;;;7395716;19;20381;-86
2023/01/24 10:12:02;;;;;;;26.67;17.38;;;1.40;99.90;;;;;;7291595;19;2004264;-87
2023/01/24 10:14:52;;;;;;;28.10;17.33;;;1.40;99.90;;;;;;7394051;19;21198;-88
2023/01/24 10:17:28;;;;;;;27.42;17.67;;;1.30;99.90;;;;;;7293542;19;2004348;-80
2023/01/24 10:20:18;;;;;;;25.30;15.27;;;1.30;99.90;;;;;;7394182;19;20351;-82
2023/01/24 10:23:15;;;;;;;24.48;16.85;;;1.40;99.90;;;;;;7289229;19;2004350;-87
2023/01/24 10:26:04;;;;;;;27.92;17.20;;;1.40;99.90;;;;;;7288081;19;2004405;-84
2023/01/24 10:28:38;;;;;;;27.13;17.73;;;1.40;99.90;;;;;;7391748;19;21132;-81
2023/01/24 10:31:28;;;;;;;29.45;18.55;;;1.40;99.90;;;;;;7391658;19;20313;-86
2023/01/24 10:34:04;;;;;;;30.13;17.83;;;1.40;99.90;;;;;;7291826;19;2004321;-86
2023/01/24 10:36:49;;;;;;;27.52;17.48;;;1.40;99.90;;;;;;7395198;19;20289;-81
2023/01/24 10:39:14;;;;;;;29.83;17.77;;;1.40;99.90;;;;;;7291666;19;2006022;-88
2023/01/24 10:41:40;;;;;;;28.10;17.70;;;1.40;99.90;;;;;;7393400;19;20336;-84
2023/01/24 10:44:14;;;;;;;25.10;16.50;;;1.40;99.90;;;;;;7396872;19;20332;-83
2023/01/24 10:47:18;;;;;;;28.05;17.05;;;1.40;99.90;;;;;;7291203;19;2004362;-85
2023/01/24 10:49:50;;;;;;;28.30;17.83;;;1.40;99.90;;;;;;7290988;19;2004356;-79
2023/01/24 10:52:17;;;;;;;29.67;17.75;;;1.50;99.90;;;;;;7395269;19;21178;-83
2023/01/24 10:55:00;;;;;;;27.48;16.30;;;1.50;99.90;;;;;;7393380;19;20313;-84
2023/01/24 10:57:38;;;;;;;26.50;17.00;;;1.40;99.90;;;;;;7394457;19;20316;-81
2023/01/24 11:00:27;;;;;;;27.77;17.10;;;1.50;99.90;;;;;;7390410;19;20300;-80
2023/01/24 11:02:55;;;;;;;26.70;17.15;;;1.50;99.90;;;;;;7186243;19;2004524;-84
2023/01/24 11:05:21;;;;;;;25.48;17.30;;;1.50;99.90;;;;;;7389902;19;20337;-84
2023/01/24 11:07:54;;;;;;;25.48;16.13;;;1.50;99.90;;;;;;7392978;19;20320;-80
2023/01/24 11:10:24;;;;;;;27.07;16.93;;;1.50;99.90;;;;;;7391045;19;20327;-81
2023/01/24 11:12:54;;;;;;;26.60;17.08;;;1.50;99.90;;;;;;7391093;19;20396;-81
2023/01/24 11:15:27;;;;;;;25.95;16.95;;;1.50;99.90;;;;;;7390776;19;21155;-83
2023/01/24 11:17:55;;;;;;;30.48;17.60;;;1.50;99.90;;;;;;7394128;19;20328;-81
2023/01/24 11:20:32;;;;;;;28.20;16.75;;;1.50;99.90;;;;;;7390568;19;20373;-81
2023/01/24 11:23:20;;;;;;;28.33;17.05;;;1.50;99.90;;;;;;7393558;19;20328;-84
2023/01/24 11:25:52;;;;;;;25.60;17.05;;;1.50;99.90;;;;;;7291128;19;2004224;-83
2023/01/24 11:28:23;;;;;;;24.58;16.65;;;1.40;99.90;;;;;;7392341;19;20309;-79
2023/01/24 11:30:49;;;;;;;26.85;17.48;;;1.40;99.90;;;;;;7388742;19;20308;-78
2023/01/24 11:33:26;;;;;;;28.42;17.23;;;1.40;99.90;;;;;;7390178;19;20833;-79
2023/01/24 11:35:56;;;;;;;28.35;17.17;;;1.50;99.90;;;;;;7393792;19;20332;-79
2023/01/24 11:38:23;;;;;;;26.40;17.02;;;1.50;99.90;;;;;;7392048;19;20312;-82
2023/01/24 11:40:59;;;;;;;26.13;16.83;;;1.50;99.90;;;;;;7393038;19;20834;-77
2023/01/24 11:43:42;;;;;;;27.15;17.33;;;1.50;99.90;;;;;;7389596;19;20400;-83
2023/01/24 11:46:32;;;;;;;29.30;16.73;;;1.50;99.90;;;;;;7285122;19;2019997;-79
2023/01/24 11:49:09;;;;;;;27.67;16.67;;;1.50;99.90;;;;;;7388185;19;20315;-79
2023/01/24 11:51:50;;;;;;;28.10;16.67;;;1.40;99.90;;;;;;7392297;19;20326;-84
2023/01/24 11:54:40;;;;;;;26.33;15.48;;;1.50;99.90;;;;;;7286125;19;2004197;-78
2023/01/24 11:57:27;;;;;;;25.15;16.48;;;1.60;99.90;;;;;;7388433;19;20321;-82
2023/01/24 12:00:27;;;;;;;25.98;16.50;;;1.60;99.90;;;;;;7286079;19;2004253;-87
2023/01/24 12:02:59;;;;;;;25.30;16.50;;;1.60;99.90;;;;;;7183242;19;2008787;-86
2023/01/24 12:05:40;;;;;;;25.80;16.30;;;1.60;99.90;;;;;;7389308;19;20406;-82
2023/01/24 12:08:32;;;;;;;25.33;16.50;;;1.60;99.90;;;;;;7386636;19;20661;-79
2023/01/24 12:11:25;;;;;;;26.20;16.38;;;1.60;99.90;;;;;;7286905;19;2004390;-85
2023/01/24 12:14:12;;;;;;;27.60;16.58;;;1.60;99.90;;;;;;7286921;19;2004245;-78
2023/01/24 12:17:15;;;;;;;24.73;15.70;;;1.60;99.90;;;;;;7287435;19;2004332;-83
2023/01/24 12:20:07;;;;;;;25.25;15.95;;;1.60;99.90;;;;;;7287173;19;2004822;-83
2023/01/24 12:22:32;;;;;;;25.88;15.88;;;1.60;99.90;;;;;;7387628;19;20830;-82
2023/01/24 12:25:02;;;;;;;30.65;16.77;;;1.60;99.90;;;;;;7388593;19;20384;-80
2023/01/24 12:27:29;;;;;;;26.80;16.88;;;1.70;99.90;;;;;;7389092;19;20316;-80
2023/01/24 12:30:08;;;;;;;26.55;16.17;;;1.60;99.90;;;;;;7387858;19;20339;-85
2023/01/24 12:32:46;;;;;;;25.35;16.23;;;1.60;99.90;;;;;;7387591;19;20301;-77
2023/01/24 12:35:23;;;;;;;26.35;16.90;;;1.60;99.90;;;;;;7285405;19;2004239;-80
2023/01/24 12:38:04;;;;;;;22.92;14.32;;;1.60;99.90;;;;;;7388347;19;20312;-79
2023/01/24 12:40:55;;;;;;;27.80;16.67;;;1.60;99.90;;;;;;7388736;19;20301;-80
2023/01/24 12:43:51;;;;;;;19.37;13.87;;;1.60;99.90;;;;;;7284627;19;2018723;-86
2023/01/24 12:46:26;;;;;;;27.70;15.98;;;1.60;99.90;;;;;;7284066;19;2004560;-82
2023/01/24 12:49:22;;;;;;;24.80;15.00;;;1.60;99.90;;;;;;7387240;19;20822;-77
2023/01/24 12:52:15;;;;;;;22.77;15.07;;;1.60;99.90;;;;;;7285906;19;2004237;-78
2023/01/24 12:54:51;;;;;;;21.25;14.45;;;1.60;99.90;;;;;;7284584;19;2004248;-80
2023/01/24 12:57:26;;;;;;;27.52;16.42;;;1.60;99.90;;;;;;7386750;19;20301;-83
2023/01/24 12:59:52;;;;;;;25.02;15.48;;;1.60;99.90;;;;;;7387253;19;20349;-80
2023/01/24 13:02:36;;;;;;;26.67;15.98;;;1.60;99.90;;;;;;7384318;19;20305;-85
2023/01/24 13:05:31;;;;;;;21.73;14.88;;;1.50;99.90;;;;;;7384937;19;20316;-78
2023/01/24 13:08:04;;;;;;;24.33;15.38;;;1.60;99.90;;;;;;7280168;19;2004402;-76
2023/01/24 13:11:04;;;;;;;25.70;15.00;;;1.60;99.90;;;;;;7384969;19;20309;-80
2023/01/24 13:13:32;;;;;;;25.08;16.23;;;1.60;99.90;;;;;;7283909;19;2004590;-79
2023/01/24 13:16:25;;;;;;;23.85;14.85;;;1.60;99.90;;;;;;7389901;19;20493;-78
2023/01/24 13:19:00;;;;;;;25.52;15.73;;;1.60;99.90;;;;;;7288127;19;2004810;-85
2023/01/24 13:21:40;;;;;;;24.70;15.52;;;1.60;99.90;;;;;;7391363;19;20406;-75
2023/01/24 13:24:35;;;;;;;24.42;16.02;;;1.60;99.90;;;;;;7395351;19;20368;-80
2023/01/24 13:27:10;;;;;;;26.40;15.60;;;1.60;99.90;;;;;;7294817;19;2004113;-77
2023/01/24 13:30:03;;;;;;;22.25;15.18;;;1.60;99.90;;;;;;7395106;19;20297;-75
2023/01/24 13:32:29;;;;;;;25.08;15.35;;;1.60;99.90;;;;;;7290077;19;2004227;-78